sensor_id;sensor_type;location;lat;lon;timestamp;P1;durP1;ratioP1;P2;durP2;ratioP2
6434;SDS011;3250;42.694;23.278;2023-03-08T00:00:05;25.73;;;11.07;;
6434;SDS011;3250;42.694;23.278;2023-03-08T00:02:34;28.50;;;12.20;;
6434;SDS011;3250;42.694;23.278;2023-03-08T00:05:00;20.73;;;9.87;;
6434;SDS011;3250;42.694;23.278;2023-03-08T00:07:25;19.93;;;11.10;;
6434;SDS011;3250;42.694;23.278;2023-03-08T00:09:51;44.70;;;22.90;;
6434;SDS011;3250;42.694;23.278;2023-03-08T00:12:16;22.57;;;10.97;;
6434;SDS011;3250;42.694;23.278;2023-03-08T00:14:46;19.90;;;10.63;;
6434;SDS011;3250;42.694;23.278;2023-03-08T00:17:12;22.57;;;9.93;;
6434;SDS011;3250;42.694;23.278;2023-03-08T00:19:39;21.65;;;10.57;;
6434;SDS011;3250;42.694;23.278;2023-03-08T00:22:04;20.87;;;10.33;;
6434;SDS011;3250;42.694;23.278;2023-03-08T00:24:29;21.50;;;10.03;;
6434;SDS011;3250;42.694;23.278;2023-03-08T00:26:55;23.03;;;11.30;;
6434;SDS011;3250;42.694;23.278;2023-03-08T00:29:20;20.83;;;9.63;;
6434;SDS011;3250;42.694;23.278;2023-03-08T00:31:46;20.80;;;10.07;;
6434;SDS011;3250;42.694;23.278;2023-03-08T00:34:11;25.17;;;13.37;;
6434;SDS011;3250;42.694;23.278;2023-03-08T00:36:37;23.70;;;13.03;;
6434;SDS011;3250;42.694;23.278;2023-03-08T00:39:02;24.93;;;11.60;;
6434;SDS011;3250;42.694;23.278;2023-03-08T00:41:27;22.37;;;10.27;;
6434;SDS011;3250;42.694;23.278;2023-03-08T00:43:53;23.50;;;10.10;;
6434;SDS011;3250;42.694;23.278;2023-03-08T00:46:18;23.07;;;9.47;;
6434;SDS011;3250;42.694;23.278;2023-03-08T00:48:43;16.10;;;9.60;;
6434;SDS011;3250;42.694;23.278;2023-03-08T00:51:10;20.40;;;10.60;;
6434;SDS011;3250;42.694;23.278;2023-03-08T00:53:39;17.20;;;9.80;;
6434;SDS011;3250;42.694;23.278;2023-03-08T00:56:04;17.63;;;9.57;;
6434;SDS011;3250;42.694;23.278;2023-03-08T00:58:30;23.00;;;10.87;;
6434;SDS011;3250;42.694;23.278;2023-03-08T01:00:56;25.63;;;11.50;;
6434;SDS011;3250;42.694;23.278;2023-03-08T01:03:22;22.07;;;10.40;;
6434;SDS011;3250;42.694;23.278;2023-03-08T01:05:49;19.00;;;11.03;;
6434;SDS011;3250;42.694;23.278;2023-03-08T01:08:17;21.88;;;11.13;;
6434;SDS011;3250;42.694;23.278;2023-03-08T01:10:50;25.27;;;11.00;;
6434;SDS011;3250;42.694;23.278;2023-03-08T01:13:18;29.43;;;11.70;;
6434;SDS011;3250;42.694;23.278;2023-03-08T01:15:44;19.23;;;10.50;;
6434;SDS011;3250;42.694;23.278;2023-03-08T01:18:10;26.30;;;11.70;;
6434;SDS011;3250;42.694;23.278;2023-03-08T01:20:35;28.50;;;13.53;;
6434;SDS011;3250;42.694;23.278;2023-03-08T01:23:01;61.63;;;28.07;;
6434;SDS011;3250;42.694;23.278;2023-03-08T01:25:26;54.87;;;23.43;;
6434;SDS011;3250;42.694;23.278;2023-03-08T01:27:52;41.80;;;19.63;;
6434;SDS011;3250;42.694;23.278;2023-03-08T01:30:17;35.60;;;14.30;;
6434;SDS011;3250;42.694;23.278;2023-03-08T01:32:43;31.00;;;14.40;;
6434;SDS011;3250;42.694;23.278;2023-03-08T01:35:08;29.87;;;11.83;;
6434;SDS011;3250;42.694;23.278;2023-03-08T01:37:34;23.83;;;10.93;;
6434;SDS011;3250;42.694;23.278;2023-03-08T01:40:00;27.70;;;12.13;;
6434;SDS011;3250;42.694;23.278;2023-03-08T01:42:26;25.03;;;11.27;;
6434;SDS011;3250;42.694;23.278;2023-03-08T01:47:24;23.40;;;10.80;;
6434;SDS011;3250;42.694;23.278;2023-03-08T01:49:54;21.60;;;9.43;;
6434;SDS011;3250;42.694;23.278;2023-03-08T01:52:41;25.17;;;11.77;;
6434;SDS011;3250;42.694;23.278;2023-03-08T01:55:11;27.20;;;11.93;;
6434;SDS011;3250;42.694;23.278;2023-03-08T01:57:38;24.35;;;11.50;;
6434;SDS011;3250;42.694;23.278;2023-03-08T02:00:08;19.03;;;10.30;;
6434;SDS011;3250;42.694;23.278;2023-03-08T02:02:40;28.20;;;12.70;;
6434;SDS011;3250;42.694;23.278;2023-03-08T02:05:11;24.63;;;12.30;;
6434;SDS011;3250;42.694;23.278;2023-03-08T02:07:38;24.37;;;9.90;;
6434;SDS011;3250;42.694;23.278;2023-03-08T02:10:04;27.60;;;13.02;;
6434;SDS011;3250;42.694;23.278;2023-03-08T02:12:30;25.70;;;12.03;;
6434;SDS011;3250;42.694;23.278;2023-03-08T02:14:56;23.23;;;11.80;;
6434;SDS011;3250;42.694;23.278;2023-03-08T02:17:22;26.17;;;13.00;;
6434;SDS011;3250;42.694;23.278;2023-03-08T02:19:55;26.50;;;12.80;;
6434;SDS011;3250;42.694;23.278;2023-03-08T02:22:26;29.67;;;12.63;;
6434;SDS011;3250;42.694;23.278;2023-03-08T02:24:51;23.97;;;11.57;;
6434;SDS011;3250;42.694;23.278;2023-03-08T02:27:17;25.67;;;12.13;;
6434;SDS011;3250;42.694;23.278;2023-03-08T02:29:46;27.13;;;10.97;;
6434;SDS011;3250;42.694;23.278;2023-03-08T02:32:11;21.60;;;11.60;;
6434;SDS011;3250;42.694;23.278;2023-03-08T02:34:37;26.42;;;13.00;;
6434;SDS011;3250;42.694;23.278;2023-03-08T02:37:02;25.17;;;11.47;;
6434;SDS011;3250;42.694;23.278;2023-03-08T02:39:28;28.37;;;12.33;;
6434;SDS011;3250;42.694;23.278;2023-03-08T02:41:53;23.93;;;11.03;;
6434;SDS011;3250;42.694;23.278;2023-03-08T02:44:19;23.83;;;10.97;;
6434;SDS011;3250;42.694;23.278;2023-03-08T02:46:44;22.90;;;10.88;;
6434;SDS011;3250;42.694;23.278;2023-03-08T02:49:10;26.70;;;12.80;;
6434;SDS011;3250;42.694;23.278;2023-03-08T02:51:35;24.67;;;11.37;;
6434;SDS011;3250;42.694;23.278;2023-03-08T02:54:00;20.97;;;11.70;;
6434;SDS011;3250;42.694;23.278;2023-03-08T02:56:26;19.57;;;10.70;;
6434;SDS011;3250;42.694;23.278;2023-03-08T02:58:51;16.00;;;8.50;;
6434;SDS011;3250;42.694;23.278;2023-03-08T03:01:17;15.80;;;8.50;;
6434;SDS011;3250;42.694;23.278;2023-03-08T03:03:42;18.13;;;9.00;;
6434;SDS011;3250;42.694;23.278;2023-03-08T03:06:14;19.40;;;9.60;;
6434;SDS011;3250;42.694;23.278;2023-03-08T03:08:41;15.90;;;9.17;;
6434;SDS011;3250;42.694;23.278;2023-03-08T03:11:14;21.10;;;10.07;;
6434;SDS011;3250;42.694;23.278;2023-03-08T03:13:41;17.47;;;8.63;;
6434;SDS011;3250;42.694;23.278;2023-03-08T03:16:07;20.07;;;9.73;;
6434;SDS011;3250;42.694;23.278;2023-03-08T03:18:33;20.00;;;9.97;;
6434;SDS011;3250;42.694;23.278;2023-03-08T03:21:06;19.77;;;10.13;;
6434;SDS011;3250;42.694;23.278;2023-03-08T03:23:33;23.55;;;10.23;;
6434;SDS011;3250;42.694;23.278;2023-03-08T03:26:09;16.93;;;8.60;;
6434;SDS011;3250;42.694;23.278;2023-03-08T03:28:36;15.90;;;8.93;;
6434;SDS011;3250;42.694;23.278;2023-03-08T03:31:05;18.93;;;9.10;;
6434;SDS011;3250;42.694;23.278;2023-03-08T03:33:32;19.07;;;8.90;;
6434;SDS011;3250;42.694;23.278;2023-03-08T03:35:57;20.70;;;10.30;;
6434;SDS011;3250;42.694;23.278;2023-03-08T03:38:23;21.13;;;10.25;;
6434;SDS011;3250;42.694;23.278;2023-03-08T03:40:48;22.83;;;10.40;;
6434;SDS011;3250;42.694;23.278;2023-03-08T03:43:14;18.97;;;10.30;;
6434;SDS011;3250;42.694;23.278;2023-03-08T03:45:39;18.40;;;9.60;;
6434;SDS011;3250;42.694;23.278;2023-03-08T03:48:04;22.57;;;11.60;;
6434;SDS011;3250;42.694;23.278;2023-03-08T03:50:30;23.60;;;10.83;;
6434;SDS011;3250;42.694;23.278;2023-03-08T03:52:55;24.27;;;12.73;;
6434;SDS011;3250;42.694;23.278;2023-03-08T03:55:21;36.20;;;16.60;;
6434;SDS011;3250;42.694;23.278;2023-03-08T03:57:46;41.67;;;18.83;;
6434;SDS011;3250;42.694;23.278;2023-03-08T04:00:12;50.77;;;24.20;;
6434;SDS011;3250;42.694;23.278;2023-03-08T04:02:37;42.77;;;20.17;;
6434;SDS011;3250;42.694;23.278;2023-03-08T04:05:03;38.03;;;19.07;;
6434;SDS011;3250;42.694;23.278;2023-03-08T04:07:28;45.47;;;19.53;;
6434;SDS011;3250;42.694;23.278;2023-03-08T04:09:54;51.78;;;24.15;;
6434;SDS011;3250;42.694;23.278;2023-03-08T04:12:19;42.70;;;21.67;;
6434;SDS011;3250;42.694;23.278;2023-03-08T04:14:45;35.10;;;17.10;;
6434;SDS011;3250;42.694;23.278;2023-03-08T04:17:10;41.17;;;18.87;;
6434;SDS011;3250;42.694;23.278;2023-03-08T04:19:35;44.47;;;23.03;;
6434;SDS011;3250;42.694;23.278;2023-03-08T04:22:01;47.60;;;25.20;;
6434;SDS011;3250;42.694;23.278;2023-03-08T04:24:27;45.40;;;23.27;;
6434;SDS011;3250;42.694;23.278;2023-03-08T04:26:52;44.30;;;23.83;;
6434;SDS011;3250;42.694;23.278;2023-03-08T04:29:17;45.63;;;21.70;;
6434;SDS011;3250;42.694;23.278;2023-03-08T04:31:43;40.77;;;19.93;;
6434;SDS011;3250;42.694;23.278;2023-03-08T04:34:08;37.60;;;18.57;;
6434;SDS011;3250;42.694;23.278;2023-03-08T04:36:34;25.20;;;11.70;;
6434;SDS011;3250;42.694;23.278;2023-03-08T04:39:00;30.40;;;15.07;;
6434;SDS011;3250;42.694;23.278;2023-03-08T04:41:26;32.73;;;17.00;;
6434;SDS011;3250;42.694;23.278;2023-03-08T04:43:52;36.63;;;18.23;;
6434;SDS011;3250;42.694;23.278;2023-03-08T04:46:20;41.73;;;18.23;;
6434;SDS011;3250;42.694;23.278;2023-03-08T04:48:47;43.97;;;17.53;;
6434;SDS011;3250;42.694;23.278;2023-03-08T04:51:14;32.67;;;16.43;;
6434;SDS011;3250;42.694;23.278;2023-03-08T04:53:40;45.47;;;18.37;;
6434;SDS011;3250;42.694;23.278;2023-03-08T04:56:08;39.00;;;17.50;;
6434;SDS011;3250;42.694;23.278;2023-03-08T04:58:34;39.00;;;17.93;;
6434;SDS011;3250;42.694;23.278;2023-03-08T05:01:07;35.60;;;17.90;;
6434;SDS011;3250;42.694;23.278;2023-03-08T05:03:33;52.13;;;21.60;;
6434;SDS011;3250;42.694;23.278;2023-03-08T05:05:59;47.00;;;22.20;;
6434;SDS011;3250;42.694;23.278;2023-03-08T05:08:24;45.47;;;21.33;;
6434;SDS011;3250;42.694;23.278;2023-03-08T05:10:57;48.90;;;20.57;;
6434;SDS011;3250;42.694;23.278;2023-03-08T05:13:28;46.57;;;20.80;;
6434;SDS011;3250;42.694;23.278;2023-03-08T05:15:58;48.13;;;22.03;;
6434;SDS011;3250;42.694;23.278;2023-03-08T05:18:24;51.47;;;22.03;;
6434;SDS011;3250;42.694;23.278;2023-03-08T05:20:53;38.67;;;17.90;;
6434;SDS011;3250;42.694;23.278;2023-03-08T05:23:23;38.33;;;18.30;;
6434;SDS011;3250;42.694;23.278;2023-03-08T05:25:59;38.73;;;18.83;;
6434;SDS011;3250;42.694;23.278;2023-03-08T05:28:26;43.33;;;22.10;;
6434;SDS011;3250;42.694;23.278;2023-03-08T05:31:00;48.77;;;25.93;;
6434;SDS011;3250;42.694;23.278;2023-03-08T05:33:26;52.80;;;24.33;;
6434;SDS011;3250;42.694;23.278;2023-03-08T05:35:52;40.23;;;20.47;;
6434;SDS011;3250;42.694;23.278;2023-03-08T05:38:21;43.37;;;21.67;;
6434;SDS011;3250;42.694;23.278;2023-03-08T05:40:47;54.77;;;23.33;;
6434;SDS011;3250;42.694;23.278;2023-03-08T05:43:13;33.33;;;15.67;;
6434;SDS011;3250;42.694;23.278;2023-03-08T05:45:38;32.90;;;16.53;;
6434;SDS011;3250;42.694;23.278;2023-03-08T05:48:04;56.47;;;20.17;;
6434;SDS011;3250;42.694;23.278;2023-03-08T05:50:29;35.47;;;17.70;;
6434;SDS011;3250;42.694;23.278;2023-03-08T05:52:55;41.47;;;18.47;;
6434;SDS011;3250;42.694;23.278;2023-03-08T05:55:20;40.93;;;19.63;;
6434;SDS011;3250;42.694;23.278;2023-03-08T05:57:45;43.20;;;19.73;;
6434;SDS011;3250;42.694;23.278;2023-03-08T06:00:11;48.37;;;21.97;;
6434;SDS011;3250;42.694;23.278;2023-03-08T06:02:37;39.93;;;20.87;;
6434;SDS011;3250;42.694;23.278;2023-03-08T06:05:02;45.07;;;20.53;;
6434;SDS011;3250;42.694;23.278;2023-03-08T06:07:29;42.25;;;21.52;;
6434;SDS011;3250;42.694;23.278;2023-03-08T06:09:54;48.97;;;22.70;;
6434;SDS011;3250;42.694;23.278;2023-03-08T06:12:20;57.22;;;23.30;;
6434;SDS011;3250;42.694;23.278;2023-03-08T06:14:46;37.53;;;19.88;;
6434;SDS011;3250;42.694;23.278;2023-03-08T06:17:11;26.75;;;13.98;;
6434;SDS011;3250;42.694;23.278;2023-03-08T06:19:36;26.65;;;14.20;;
6434;SDS011;3250;42.694;23.278;2023-03-08T06:22:02;32.97;;;15.82;;
6434;SDS011;3250;42.694;23.278;2023-03-08T06:24:27;24.13;;;13.15;;
6434;SDS011;3250;42.694;23.278;2023-03-08T06:26:53;24.90;;;13.68;;
6434;SDS011;3250;42.694;23.278;2023-03-08T06:29:19;25.30;;;13.40;;
6434;SDS011;3250;42.694;23.278;2023-03-08T06:31:45;19.98;;;10.60;;
6434;SDS011;3250;42.694;23.278;2023-03-08T06:34:10;19.40;;;9.73;;
6434;SDS011;3250;42.694;23.278;2023-03-08T06:36:36;22.90;;;9.90;;
6434;SDS011;3250;42.694;23.278;2023-03-08T06:39:02;14.88;;;8.13;;
6434;SDS011;3250;42.694;23.278;2023-03-08T06:41:28;15.90;;;8.40;;
6434;SDS011;3250;42.694;23.278;2023-03-08T06:43:54;19.50;;;7.90;;
6434;SDS011;3250;42.694;23.278;2023-03-08T06:46:20;15.00;;;7.80;;
6434;SDS011;3250;42.694;23.278;2023-03-08T06:48:46;12.63;;;7.03;;
6434;SDS011;3250;42.694;23.278;2023-03-08T06:51:12;18.17;;;8.70;;
6434;SDS011;3250;42.694;23.278;2023-03-08T06:53:38;16.55;;;8.05;;
6434;SDS011;3250;42.694;23.278;2023-03-08T06:56:04;16.42;;;9.38;;
6434;SDS011;3250;42.694;23.278;2023-03-08T06:58:31;16.77;;;8.32;;
6434;SDS011;3250;42.694;23.278;2023-03-08T07:00:57;15.23;;;8.00;;
6434;SDS011;3250;42.694;23.278;2023-03-08T07:03:28;18.30;;;7.32;;
6434;SDS011;3250;42.694;23.278;2023-03-08T07:06:15;11.77;;;6.00;;
6434;SDS011;3250;42.694;23.278;2023-03-08T07:08:39;18.50;;;7.53;;
6434;SDS011;3250;42.694;23.278;2023-03-08T07:11:06;27.75;;;16.15;;
6434;SDS011;3250;42.694;23.278;2023-03-08T07:13:33;19.10;;;7.47;;
6434;SDS011;3250;42.694;23.278;2023-03-08T07:16:03;17.90;;;8.07;;
6434;SDS011;3250;42.694;23.278;2023-03-08T07:18:30;16.38;;;8.23;;
6434;SDS011;3250;42.694;23.278;2023-03-08T07:20:56;16.08;;;7.43;;
6434;SDS011;3250;42.694;23.278;2023-03-08T07:23:21;24.13;;;6.90;;
6434;SDS011;3250;42.694;23.278;2023-03-08T07:25:47;15.70;;;6.72;;
6434;SDS011;3250;42.694;23.278;2023-03-08T07:28:13;15.50;;;6.70;;
6434;SDS011;3250;42.694;23.278;2023-03-08T07:30:38;8.23;;;5.53;;
6434;SDS011;3250;42.694;23.278;2023-03-08T07:33:04;15.77;;;5.72;;
6434;SDS011;3250;42.694;23.278;2023-03-08T07:35:30;11.40;;;5.30;;
6434;SDS011;3250;42.694;23.278;2023-03-08T07:37:55;11.07;;;5.45;;
6434;SDS011;3250;42.694;23.278;2023-03-08T07:40:21;10.50;;;5.35;;
6434;SDS011;3250;42.694;23.278;2023-03-08T07:42:46;11.70;;;5.38;;
6434;SDS011;3250;42.694;23.278;2023-03-08T07:45:13;11.30;;;6.20;;
6434;SDS011;3250;42.694;23.278;2023-03-08T07:47:39;14.02;;;6.10;;
6434;SDS011;3250;42.694;23.278;2023-03-08T07:50:05;14.23;;;5.65;;
6434;SDS011;3250;42.694;23.278;2023-03-08T07:52:31;15.35;;;5.38;;
6434;SDS011;3250;42.694;23.278;2023-03-08T07:54:56;11.70;;;5.72;;
6434;SDS011;3250;42.694;23.278;2023-03-08T07:57:22;14.57;;;6.85;;
6434;SDS011;3250;42.694;23.278;2023-03-08T07:59:51;11.80;;;6.00;;
6434;SDS011;3250;42.694;23.278;2023-03-08T08:02:16;14.45;;;5.60;;
6434;SDS011;3250;42.694;23.278;2023-03-08T08:04:42;12.95;;;6.53;;
6434;SDS011;3250;42.694;23.278;2023-03-08T08:07:12;31.42;;;8.10;;
6434;SDS011;3250;42.694;23.278;2023-03-08T08:09:39;9.90;;;5.43;;
6434;SDS011;3250;42.694;23.278;2023-03-08T08:12:05;10.77;;;5.40;;
6434;SDS011;3250;42.694;23.278;2023-03-08T08:14:31;11.55;;;6.00;;
6434;SDS011;3250;42.694;23.278;2023-03-08T08:16:57;13.25;;;6.80;;
6434;SDS011;3250;42.694;23.278;2023-03-08T08:19:22;13.50;;;5.50;;
6434;SDS011;3250;42.694;23.278;2023-03-08T08:21:48;14.63;;;6.20;;
6434;SDS011;3250;42.694;23.278;2023-03-08T08:24:14;11.55;;;6.13;;
6434;SDS011;3250;42.694;23.278;2023-03-08T08:26:41;14.90;;;5.55;;
6434;SDS011;3250;42.694;23.278;2023-03-08T08:29:06;12.97;;;4.93;;
6434;SDS011;3250;42.694;23.278;2023-03-08T08:31:32;12.52;;;5.78;;
6434;SDS011;3250;42.694;23.278;2023-03-08T08:33:58;8.60;;;4.85;;
6434;SDS011;3250;42.694;23.278;2023-03-08T08:36:25;13.32;;;5.57;;
6434;SDS011;3250;42.694;23.278;2023-03-08T08:38:51;12.18;;;4.70;;
6434;SDS011;3250;42.694;23.278;2023-03-08T08:41:17;10.90;;;5.68;;
6434;SDS011;3250;42.694;23.278;2023-03-08T08:43:44;11.77;;;4.68;;
6434;SDS011;3250;42.694;23.278;2023-03-08T08:46:11;12.80;;;5.40;;
6434;SDS011;3250;42.694;23.278;2023-03-08T08:48:37;8.52;;;5.72;;
6434;SDS011;3250;42.694;23.278;2023-03-08T08:51:04;8.00;;;4.82;;
6434;SDS011;3250;42.694;23.278;2023-03-08T08:53:30;13.82;;;5.35;;
6434;SDS011;3250;42.694;23.278;2023-03-08T08:55:56;10.65;;;5.45;;
6434;SDS011;3250;42.694;23.278;2023-03-08T08:58:22;16.10;;;5.63;;
6434;SDS011;3250;42.694;23.278;2023-03-08T09:00:47;10.63;;;5.30;;
6434;SDS011;3250;42.694;23.278;2023-03-08T09:03:13;15.07;;;5.47;;
6434;SDS011;3250;42.694;23.278;2023-03-08T09:05:40;9.05;;;6.05;;
6434;SDS011;3250;42.694;23.278;2023-03-08T09:08:07;17.50;;;5.50;;
6434;SDS011;3250;42.694;23.278;2023-03-08T09:10:33;10.10;;;5.88;;
6434;SDS011;3250;42.694;23.278;2023-03-08T09:13:00;10.82;;;5.93;;
6434;SDS011;3250;42.694;23.278;2023-03-08T09:15:26;18.08;;;7.22;;
6434;SDS011;3250;42.694;23.278;2023-03-08T09:17:51;17.92;;;6.07;;
6434;SDS011;3250;42.694;23.278;2023-03-08T09:20:17;10.32;;;6.00;;
6434;SDS011;3250;42.694;23.278;2023-03-08T09:22:43;14.90;;;5.90;;
6434;SDS011;3250;42.694;23.278;2023-03-08T09:25:09;16.92;;;7.07;;
6434;SDS011;3250;42.694;23.278;2023-03-08T09:27:36;10.50;;;6.28;;
6434;SDS011;3250;42.694;23.278;2023-03-08T09:30:03;15.80;;;6.65;;
6434;SDS011;3250;42.694;23.278;2023-03-08T09:32:31;14.45;;;7.28;;
6434;SDS011;3250;42.694;23.278;2023-03-08T09:34:58;16.27;;;6.55;;
6434;SDS011;3250;42.694;23.278;2023-03-08T09:37:23;11.95;;;6.97;;
6434;SDS011;3250;42.694;23.278;2023-03-08T09:39:52;14.57;;;7.07;;
6434;SDS011;3250;42.694;23.278;2023-03-08T09:45:00;19.95;;;7.43;;
6434;SDS011;3250;42.694;23.278;2023-03-08T09:53:15;16.02;;;6.70;;
6434;SDS011;3250;42.694;23.278;2023-03-08T09:55:46;21.33;;;6.35;;
6434;SDS011;3250;42.694;23.278;2023-03-08T10:09:39;7.57;;;4.78;;
6434;SDS011;3250;42.694;23.278;2023-03-08T10:12:19;15.98;;;4.95;;
6434;SDS011;3250;42.694;23.278;2023-03-08T10:14:55;8.57;;;4.50;;
6434;SDS011;3250;42.694;23.278;2023-03-08T10:18:09;11.23;;;4.20;;
6434;SDS011;3250;42.694;23.278;2023-03-08T10:20:22;8.57;;;4.65;;
6434;SDS011;3250;42.694;23.278;2023-03-08T10:23:26;7.65;;;4.53;;
6434;SDS011;3250;42.694;23.278;2023-03-08T10:25:44;5.75;;;4.35;;
6434;SDS011;3250;42.694;23.278;2023-03-08T10:28:15;12.07;;;4.90;;
6434;SDS011;3250;42.694;23.278;2023-03-08T10:30:46;14.48;;;6.15;;
6434;SDS011;3250;42.694;23.278;2023-03-08T10:33:14;11.95;;;4.90;;
6434;SDS011;3250;42.694;23.278;2023-03-08T10:38:26;10.95;;;4.47;;
6434;SDS011;3250;42.694;23.278;2023-03-08T10:41:04;8.55;;;4.38;;
6434;SDS011;3250;42.694;23.278;2023-03-08T10:43:44;7.18;;;3.50;;
6434;SDS011;3250;42.694;23.278;2023-03-08T10:46:12;7.45;;;3.90;;
6434;SDS011;3250;42.694;23.278;2023-03-08T10:48:41;5.43;;;3.53;;
6434;SDS011;3250;42.694;23.278;2023-03-08T10:51:14;7.53;;;3.58;;
6434;SDS011;3250;42.694;23.278;2023-03-08T10:53:50;12.45;;;4.70;;
6434;SDS011;3250;42.694;23.278;2023-03-08T10:56:24;7.68;;;3.25;;
6434;SDS011;3250;42.694;23.278;2023-03-08T10:58:55;6.88;;;2.60;;
6434;SDS011;3250;42.694;23.278;2023-03-08T11:01:26;5.03;;;3.05;;
6434;SDS011;3250;42.694;23.278;2023-03-08T11:04:00;7.53;;;3.42;;
6434;SDS011;3250;42.694;23.278;2023-03-08T11:06:26;2.17;;;1.73;;
6434;SDS011;3250;42.694;23.278;2023-03-08T11:08:55;7.45;;;3.08;;
6434;SDS011;3250;42.694;23.278;2023-03-08T11:11:23;6.05;;;3.08;;
6434;SDS011;3250;42.694;23.278;2023-03-08T11:13:50;4.70;;;2.63;;
6434;SDS011;3250;42.694;23.278;2023-03-08T11:16:29;2.45;;;1.70;;
6434;SDS011;3250;42.694;23.278;2023-03-08T11:32:45;1.58;;;1.42;;
6434;SDS011;3250;42.694;23.278;2023-03-08T11:49:26;12.82;;;4.47;;
6434;SDS011;3250;42.694;23.278;2023-03-08T11:58:00;11.55;;;3.92;;
6434;SDS011;3250;42.694;23.278;2023-03-08T12:00:47;6.70;;;2.97;;
6434;SDS011;3250;42.694;23.278;2023-03-08T12:03:20;3.70;;;2.20;;
6434;SDS011;3250;42.694;23.278;2023-03-08T12:05:51;8.25;;;1.90;;
6434;SDS011;3250;42.694;23.278;2023-03-08T12:10:56;7.45;;;1.90;;
6434;SDS011;3250;42.694;23.278;2023-03-08T12:15:55;7.03;;;3.58;;
6434;SDS011;3250;42.694;23.278;2023-03-08T12:18:35;7.40;;;3.50;;
6434;SDS011;3250;42.694;23.278;2023-03-08T12:21:13;10.07;;;3.25;;
6434;SDS011;3250;42.694;23.278;2023-03-08T12:26:29;5.70;;;3.58;;
6434;SDS011;3250;42.694;23.278;2023-03-08T12:29:02;4.45;;;2.40;;
6434;SDS011;3250;42.694;23.278;2023-03-08T12:31:42;1.90;;;1.38;;
6434;SDS011;3250;42.694;23.278;2023-03-08T12:34:22;5.55;;;2.30;;
6434;SDS011;3250;42.694;23.278;2023-03-08T12:37:02;4.57;;;2.25;;
6434;SDS011;3250;42.694;23.278;2023-03-08T12:39:30;6.10;;;2.92;;
6434;SDS011;3250;42.694;23.278;2023-03-08T12:44:24;3.67;;;2.25;;
6434;SDS011;3250;42.694;23.278;2023-03-08T12:46:52;2.25;;;1.70;;
6434;SDS011;3250;42.694;23.278;2023-03-08T12:49:29;9.27;;;1.90;;
6434;SDS011;3250;42.694;23.278;2023-03-08T12:52:01;4.85;;;1.98;;
6434;SDS011;3250;42.694;23.278;2023-03-08T12:54:32;3.47;;;2.38;;
6434;SDS011;3250;42.694;23.278;2023-03-08T12:57:00;3.67;;;2.33;;
6434;SDS011;3250;42.694;23.278;2023-03-08T12:59:37;3.75;;;2.60;;
6434;SDS011;3250;42.694;23.278;2023-03-08T13:05:01;4.05;;;2.40;;
6434;SDS011;3250;42.694;23.278;2023-03-08T13:08:00;3.88;;;2.20;;
6434;SDS011;3250;42.694;23.278;2023-03-08T13:13:23;3.13;;;1.85;;
6434;SDS011;3250;42.694;23.278;2023-03-08T13:16:02;5.00;;;1.90;;
6434;SDS011;3250;42.694;23.278;2023-03-08T13:18:45;3.30;;;1.73;;
6434;SDS011;3250;42.694;23.278;2023-03-08T13:29:36;1.83;;;1.40;;
6434;SDS011;3250;42.694;23.278;2023-03-08T13:32:04;1.67;;;1.35;;
6434;SDS011;3250;42.694;23.278;2023-03-08T13:34:57;2.65;;;1.55;;
6434;SDS011;3250;42.694;23.278;2023-03-08T13:37:28;2.95;;;2.05;;
6434;SDS011;3250;42.694;23.278;2023-03-08T13:39:55;2.78;;;1.70;;
6434;SDS011;3250;42.694;23.278;2023-03-08T13:42:26;8.32;;;1.95;;
6434;SDS011;3250;42.694;23.278;2023-03-08T13:44:53;5.55;;;1.65;;
6434;SDS011;3250;42.694;23.278;2023-03-08T13:47:32;3.05;;;1.80;;
6434;SDS011;3250;42.694;23.278;2023-03-08T13:50:01;4.60;;;1.60;;
6434;SDS011;3250;42.694;23.278;2023-03-08T13:52:29;4.53;;;1.70;;
6434;SDS011;3250;42.694;23.278;2023-03-08T13:55:01;9.15;;;1.95;;
6434;SDS011;3250;42.694;23.278;2023-03-08T13:57:30;2.17;;;1.70;;
6434;SDS011;3250;42.694;23.278;2023-03-08T13:59:58;4.32;;;1.60;;
6434;SDS011;3250;42.694;23.278;2023-03-08T14:02:26;2.40;;;1.30;;
6434;SDS011;3250;42.694;23.278;2023-03-08T14:04:54;2.75;;;1.42;;
6434;SDS011;3250;42.694;23.278;2023-03-08T14:07:25;8.07;;;1.92;;
6434;SDS011;3250;42.694;23.278;2023-03-08T14:09:52;3.05;;;1.88;;
6434;SDS011;3250;42.694;23.278;2023-03-08T15:32:02;3.43;;;1.67;;
6434;SDS011;3250;42.694;23.278;2023-03-08T15:34:28;2.42;;;1.67;;
6434;SDS011;3250;42.694;23.278;2023-03-08T15:36:53;6.60;;;2.27;;
6434;SDS011;3250;42.694;23.278;2023-03-08T15:39:19;5.35;;;3.10;;
6434;SDS011;3250;42.694;23.278;2023-03-08T15:41:45;5.03;;;3.42;;
6434;SDS011;3250;42.694;23.278;2023-03-08T15:44:11;12.80;;;5.43;;
6434;SDS011;3250;42.694;23.278;2023-03-08T15:46:37;12.75;;;5.30;;
6434;SDS011;3250;42.694;23.278;2023-03-08T15:49:03;7.95;;;3.40;;
6434;SDS011;3250;42.694;23.278;2023-03-08T15:51:30;8.63;;;3.53;;
6434;SDS011;3250;42.694;23.278;2023-03-08T15:54:00;9.13;;;4.47;;
6434;SDS011;3250;42.694;23.278;2023-03-08T15:56:25;10.25;;;3.90;;
6434;SDS011;3250;42.694;23.278;2023-03-08T15:58:54;15.73;;;5.15;;
6434;SDS011;3250;42.694;23.278;2023-03-08T16:01:21;9.32;;;3.78;;
6434;SDS011;3250;42.694;23.278;2023-03-08T16:03:50;5.97;;;3.30;;
6434;SDS011;3250;42.694;23.278;2023-03-08T16:06:18;5.47;;;3.00;;
6434;SDS011;3250;42.694;23.278;2023-03-08T16:08:45;5.53;;;2.90;;
6434;SDS011;3250;42.694;23.278;2023-03-08T16:11:12;4.88;;;2.90;;
6434;SDS011;3250;42.694;23.278;2023-03-08T16:13:39;10.32;;;4.90;;
6434;SDS011;3250;42.694;23.278;2023-03-08T16:16:05;8.63;;;4.77;;
6434;SDS011;3250;42.694;23.278;2023-03-08T16:18:33;10.02;;;4.38;;
6434;SDS011;3250;42.694;23.278;2023-03-08T16:21:03;7.22;;;4.40;;
6434;SDS011;3250;42.694;23.278;2023-03-08T16:23:31;12.80;;;4.63;;
6434;SDS011;3250;42.694;23.278;2023-03-08T16:26:00;8.13;;;4.72;;
6434;SDS011;3250;42.694;23.278;2023-03-08T16:28:31;12.32;;;5.22;;
6434;SDS011;3250;42.694;23.278;2023-03-08T16:30:57;14.40;;;5.93;;
6434;SDS011;3250;42.694;23.278;2023-03-08T16:33:24;14.30;;;7.38;;
6434;SDS011;3250;42.694;23.278;2023-03-08T16:35:50;14.60;;;8.23;;
6434;SDS011;3250;42.694;23.278;2023-03-08T16:38:16;17.00;;;8.43;;
6434;SDS011;3250;42.694;23.278;2023-03-08T16:40:42;22.83;;;8.98;;
6434;SDS011;3250;42.694;23.278;2023-03-08T16:43:08;18.33;;;10.48;;
6434;SDS011;3250;42.694;23.278;2023-03-08T16:45:35;44.20;;;24.48;;
6434;SDS011;3250;42.694;23.278;2023-03-08T16:48:00;61.15;;;29.33;;
6434;SDS011;3250;42.694;23.278;2023-03-08T16:50:27;57.92;;;26.75;;
6434;SDS011;3250;42.694;23.278;2023-03-08T16:52:53;63.47;;;28.65;;
6434;SDS011;3250;42.694;23.278;2023-03-08T16:55:20;74.78;;;31.15;;
6434;SDS011;3250;42.694;23.278;2023-03-08T16:57:46;54.90;;;27.60;;
6434;SDS011;3250;42.694;23.278;2023-03-08T17:00:13;74.80;;;29.97;;
6434;SDS011;3250;42.694;23.278;2023-03-08T17:02:38;54.60;;;27.50;;
6434;SDS011;3250;42.694;23.278;2023-03-08T17:05:04;71.00;;;28.90;;
6434;SDS011;3250;42.694;23.278;2023-03-08T17:07:30;58.63;;;27.83;;
6434;SDS011;3250;42.694;23.278;2023-03-08T17:09:56;66.07;;;28.60;;
6434;SDS011;3250;42.694;23.278;2023-03-08T17:12:22;64.80;;;29.67;;
6434;SDS011;3250;42.694;23.278;2023-03-08T17:14:47;88.13;;;37.60;;
6434;SDS011;3250;42.694;23.278;2023-03-08T17:17:12;69.93;;;32.23;;
6434;SDS011;3250;42.694;23.278;2023-03-08T17:19:38;90.70;;;39.27;;
6434;SDS011;3250;42.694;23.278;2023-03-08T17:22:04;103.33;;;39.03;;
6434;SDS011;3250;42.694;23.278;2023-03-08T17:24:29;114.90;;;46.33;;
6434;SDS011;3250;42.694;23.278;2023-03-08T17:26:56;177.07;;;74.17;;
6434;SDS011;3250;42.694;23.278;2023-03-08T17:29:22;191.98;;;89.03;;
6434;SDS011;3250;42.694;23.278;2023-03-08T17:31:48;163.13;;;72.33;;